sensor_id;sensor_type;location;lat;lon;timestamp;P1;durP1;ratioP1;P2;durP2;ratioP2
65037;SDS011;51605;47.040;15.294;2023-02-11T00:01:32;4.38;;;2.88;;
65037;SDS011;51605;47.040;15.294;2023-02-11T00:03:59;4.45;;;2.78;;
65037;SDS011;51605;47.040;15.294;2023-02-11T00:06:26;4.45;;;2.67;;
65037;SDS011;51605;47.040;15.294;2023-02-11T00:08:54;3.63;;;2.55;;
65037;SDS011;51605;47.040;15.294;2023-02-11T00:11:20;4.53;;;2.80;;
65037;SDS011;51605;47.040;15.294;2023-02-11T00:13:48;4.07;;;2.70;;
65037;SDS011;51605;47.040;15.294;2023-02-11T00:16:14;5.55;;;2.92;;
65037;SDS011;51605;47.040;15.294;2023-02-11T00:18:42;4.18;;;3.00;;
65037;SDS011;51605;47.040;15.294;2023-02-11T00:21:08;3.50;;;2.60;;
65037;SDS011;51605;47.040;15.294;2023-02-11T00:23:36;3.88;;;2.65;;
65037;SDS011;51605;47.040;15.294;2023-02-11T00:26:01;3.55;;;2.70;;
65037;SDS011;51605;47.040;15.294;2023-02-11T00:28:28;3.67;;;2.40;;
65037;SDS011;51605;47.040;15.294;2023-02-11T00:30:55;4.50;;;2.53;;
65037;SDS011;51605;47.040;15.294;2023-02-11T00:33:21;3.80;;;2.60;;
65037;SDS011;51605;47.040;15.294;2023-02-11T00:35:47;3.92;;;2.78;;
65037;SDS011;51605;47.040;15.294;2023-02-11T00:38:13;6.18;;;2.70;;
65037;SDS011;51605;47.040;15.294;2023-02-11T00:40:38;3.17;;;2.58;;
65037;SDS011;51605;47.040;15.294;2023-02-11T00:43:04;4.50;;;2.80;;
65037;SDS011;51605;47.040;15.294;2023-02-11T00:45:29;3.83;;;2.65;;
65037;SDS011;51605;47.040;15.294;2023-02-11T00:47:55;4.10;;;2.70;;
65037;SDS011;51605;47.040;15.294;2023-02-11T00:50:21;3.03;;;2.38;;
65037;SDS011;51605;47.040;15.294;2023-02-11T00:52:47;4.30;;;2.78;;
65037;SDS011;51605;47.040;15.294;2023-02-11T00:55:13;3.83;;;2.58;;
65037;SDS011;51605;47.040;15.294;2023-02-11T00:57:39;3.73;;;2.50;;
65037;SDS011;51605;47.040;15.294;2023-02-11T01:00:05;3.53;;;2.45;;
65037;SDS011;51605;47.040;15.294;2023-02-11T01:02:31;3.60;;;2.40;;
65037;SDS011;51605;47.040;15.294;2023-02-11T01:04:57;3.55;;;2.42;;
65037;SDS011;51605;47.040;15.294;2023-02-11T01:07:24;3.72;;;2.40;;
65037;SDS011;51605;47.040;15.294;2023-02-11T01:09:50;3.53;;;2.50;;
65037;SDS011;51605;47.040;15.294;2023-02-11T01:12:16;3.33;;;2.33;;
65037;SDS011;51605;47.040;15.294;2023-02-11T01:14:41;4.53;;;2.55;;
65037;SDS011;51605;47.040;15.294;2023-02-11T01:17:08;4.03;;;2.67;;
65037;SDS011;51605;47.040;15.294;2023-02-11T01:19:33;4.00;;;2.63;;
65037;SDS011;51605;47.040;15.294;2023-02-11T01:22:01;4.10;;;2.70;;
65037;SDS011;51605;47.040;15.294;2023-02-11T01:24:27;5.00;;;2.50;;
65037;SDS011;51605;47.040;15.294;2023-02-11T01:26:52;3.85;;;2.40;;
65037;SDS011;51605;47.040;15.294;2023-02-11T01:29:18;3.22;;;2.38;;
65037;SDS011;51605;47.040;15.294;2023-02-11T01:31:44;4.43;;;2.40;;
65037;SDS011;51605;47.040;15.294;2023-02-11T01:34:09;3.70;;;2.50;;
65037;SDS011;51605;47.040;15.294;2023-02-11T01:36:35;4.07;;;2.53;;
65037;SDS011;51605;47.040;15.294;2023-02-11T01:39:01;4.40;;;2.90;;
65037;SDS011;51605;47.040;15.294;2023-02-11T01:41:27;3.35;;;2.30;;
65037;SDS011;51605;47.040;15.294;2023-02-11T01:43:52;3.25;;;2.25;;
65037;SDS011;51605;47.040;15.294;2023-02-11T01:46:32;3.15;;;2.30;;
65037;SDS011;51605;47.040;15.294;2023-02-11T01:49:06;3.42;;;2.38;;
65037;SDS011;51605;47.040;15.294;2023-02-11T01:51:41;3.45;;;2.45;;
65037;SDS011;51605;47.040;15.294;2023-02-11T01:54:14;6.15;;;2.40;;
65037;SDS011;51605;47.040;15.294;2023-02-11T01:57:02;3.20;;;2.47;;
65037;SDS011;51605;47.040;15.294;2023-02-11T02:00:09;3.33;;;2.50;;
65037;SDS011;51605;47.040;15.294;2023-02-11T02:08:24;4.07;;;2.40;;
65037;SDS011;51605;47.040;15.294;2023-02-11T02:11:03;3.55;;;2.20;;
65037;SDS011;51605;47.040;15.294;2023-02-11T02:13:29;3.40;;;2.40;;
65037;SDS011;51605;47.040;15.294;2023-02-11T02:15:58;3.55;;;2.33;;
65037;SDS011;51605;47.040;15.294;2023-02-11T02:30:07;2.83;;;2.15;;
65037;SDS011;51605;47.040;15.294;2023-02-11T02:40:40;3.22;;;2.40;;
65037;SDS011;51605;47.040;15.294;2023-02-11T02:43:12;4.30;;;2.60;;
65037;SDS011;51605;47.040;15.294;2023-02-11T02:45:39;3.50;;;2.40;;
65037;SDS011;51605;47.040;15.294;2023-02-11T02:48:05;3.53;;;2.55;;
65037;SDS011;51605;47.040;15.294;2023-02-11T02:50:32;3.22;;;2.30;;
65037;SDS011;51605;47.040;15.294;2023-02-11T02:58:39;3.40;;;2.08;;
65037;SDS011;51605;47.040;15.294;2023-02-11T03:01:40;3.15;;;2.00;;
65037;SDS011;51605;47.040;15.294;2023-02-11T03:04:22;2.78;;;1.95;;
65037;SDS011;51605;47.040;15.294;2023-02-11T03:07:24;3.47;;;2.40;;
65037;SDS011;51605;47.040;15.294;2023-02-11T03:12:41;3.45;;;2.40;;
65037;SDS011;51605;47.040;15.294;2023-02-11T03:15:08;3.42;;;2.35;;
65037;SDS011;51605;47.040;15.294;2023-02-11T03:17:37;3.28;;;2.30;;
65037;SDS011;51605;47.040;15.294;2023-02-11T03:20:05;2.67;;;2.00;;
65037;SDS011;51605;47.040;15.294;2023-02-11T03:23:21;4.40;;;2.40;;
65037;SDS011;51605;47.040;15.294;2023-02-11T03:25:34;3.60;;;2.33;;
65037;SDS011;51605;47.040;15.294;2023-02-11T03:28:07;2.92;;;2.17;;
65037;SDS011;51605;47.040;15.294;2023-02-11T03:31:01;2.70;;;2.10;;
65037;SDS011;51605;47.040;15.294;2023-02-11T03:36:26;3.00;;;2.15;;
65037;SDS011;51605;47.040;15.294;2023-02-11T03:39:15;2.80;;;1.80;;
65037;SDS011;51605;47.040;15.294;2023-02-11T03:41:45;3.50;;;2.05;;
65037;SDS011;51605;47.040;15.294;2023-02-11T03:44:13;3.58;;;2.20;;
65037;SDS011;51605;47.040;15.294;2023-02-11T03:46:41;3.40;;;2.30;;
65037;SDS011;51605;47.040;15.294;2023-02-11T03:49:12;3.58;;;2.20;;
65037;SDS011;51605;47.040;15.294;2023-02-11T03:51:42;2.65;;;2.10;;
65037;SDS011;51605;47.040;15.294;2023-02-11T03:54:09;4.40;;;2.17;;
65037;SDS011;51605;47.040;15.294;2023-02-11T03:56:41;3.25;;;2.10;;
65037;SDS011;51605;47.040;15.294;2023-02-11T03:59:16;2.85;;;2.05;;
65037;SDS011;51605;47.040;15.294;2023-02-11T04:01:42;2.80;;;2.00;;
65037;SDS011;51605;47.040;15.294;2023-02-11T04:04:07;3.88;;;2.15;;
65037;SDS011;51605;47.040;15.294;2023-02-11T04:06:33;2.85;;;2.10;;
65037;SDS011;51605;47.040;15.294;2023-02-11T04:08:59;2.78;;;2.03;;
65037;SDS011;51605;47.040;15.294;2023-02-11T04:11:24;3.00;;;2.20;;
65037;SDS011;51605;47.040;15.294;2023-02-11T04:13:50;2.72;;;2.03;;
65037;SDS011;51605;47.040;15.294;2023-02-11T04:16:15;2.72;;;2.00;;
65037;SDS011;51605;47.040;15.294;2023-02-11T04:18:41;2.67;;;1.77;;
65037;SDS011;51605;47.040;15.294;2023-02-11T04:21:07;2.88;;;2.00;;
65037;SDS011;51605;47.040;15.294;2023-02-11T04:23:33;2.90;;;2.05;;
65037;SDS011;51605;47.040;15.294;2023-02-11T04:25:58;2.92;;;2.03;;
65037;SDS011;51605;47.040;15.294;2023-02-11T04:28:24;2.50;;;1.88;;
65037;SDS011;51605;47.040;15.294;2023-02-11T04:30:53;2.95;;;2.03;;
65037;SDS011;51605;47.040;15.294;2023-02-11T04:33:22;2.90;;;2.00;;
65037;SDS011;51605;47.040;15.294;2023-02-11T04:35:48;2.72;;;2.00;;
65037;SDS011;51605;47.040;15.294;2023-02-11T04:38:14;2.53;;;1.73;;
65037;SDS011;51605;47.040;15.294;2023-02-11T04:40:40;3.25;;;2.28;;
65037;SDS011;51605;47.040;15.294;2023-02-11T04:43:05;3.13;;;2.03;;
65037;SDS011;51605;47.040;15.294;2023-02-11T04:45:32;2.90;;;1.92;;
65037;SDS011;51605;47.040;15.294;2023-02-11T04:47:58;3.42;;;2.15;;
65037;SDS011;51605;47.040;15.294;2023-02-11T04:50:25;2.90;;;1.83;;
65037;SDS011;51605;47.040;15.294;2023-02-11T04:52:50;2.80;;;1.92;;
65037;SDS011;51605;47.040;15.294;2023-02-11T04:55:16;3.35;;;2.10;;
65037;SDS011;51605;47.040;15.294;2023-02-11T04:57:42;2.33;;;1.80;;
65037;SDS011;51605;47.040;15.294;2023-02-11T05:00:07;2.97;;;2.00;;
65037;SDS011;51605;47.040;15.294;2023-02-11T05:02:34;2.72;;;2.03;;
65037;SDS011;51605;47.040;15.294;2023-02-11T05:05:00;2.40;;;1.80;;
65037;SDS011;51605;47.040;15.294;2023-02-11T05:07:26;2.35;;;1.70;;
65037;SDS011;51605;47.040;15.294;2023-02-11T05:09:52;2.85;;;1.88;;
65037;SDS011;51605;47.040;15.294;2023-02-11T05:12:17;2.72;;;2.00;;
65037;SDS011;51605;47.040;15.294;2023-02-11T05:14:43;2.58;;;1.90;;
65037;SDS011;51605;47.040;15.294;2023-02-11T05:17:09;2.58;;;1.80;;
65037;SDS011;51605;47.040;15.294;2023-02-11T05:19:35;2.80;;;1.90;;
65037;SDS011;51605;47.040;15.294;2023-02-11T05:22:00;2.70;;;1.90;;
65037;SDS011;51605;47.040;15.294;2023-02-11T05:24:26;2.35;;;1.90;;
65037;SDS011;51605;47.040;15.294;2023-02-11T05:26:51;3.13;;;2.10;;
65037;SDS011;51605;47.040;15.294;2023-02-11T05:29:17;2.38;;;1.67;;
65037;SDS011;51605;47.040;15.294;2023-02-11T05:31:44;2.58;;;1.67;;
65037;SDS011;51605;47.040;15.294;2023-02-11T05:34:09;2.55;;;1.88;;
65037;SDS011;51605;47.040;15.294;2023-02-11T05:36:35;2.55;;;1.90;;
65037;SDS011;51605;47.040;15.294;2023-02-11T05:39:01;3.95;;;2.10;;
65037;SDS011;51605;47.040;15.294;2023-02-11T05:41:26;2.80;;;1.80;;
65037;SDS011;51605;47.040;15.294;2023-02-11T05:43:52;2.90;;;2.00;;
65037;SDS011;51605;47.040;15.294;2023-02-11T05:46:18;2.60;;;1.77;;
65037;SDS011;51605;47.040;15.294;2023-02-11T05:48:44;3.28;;;2.05;;
65037;SDS011;51605;47.040;15.294;2023-02-11T05:51:09;2.58;;;1.80;;
65037;SDS011;51605;47.040;15.294;2023-02-11T05:53:35;3.70;;;1.95;;
65037;SDS011;51605;47.040;15.294;2023-02-11T05:56:01;2.63;;;1.70;;
65037;SDS011;51605;47.040;15.294;2023-02-11T05:58:26;3.13;;;1.98;;
65037;SDS011;51605;47.040;15.294;2023-02-11T06:00:52;3.30;;;1.90;;
65037;SDS011;51605;47.040;15.294;2023-02-11T06:03:18;2.83;;;1.80;;
65037;SDS011;51605;47.040;15.294;2023-02-11T06:05:44;2.80;;;1.85;;
65037;SDS011;51605;47.040;15.294;2023-02-11T06:08:10;2.40;;;1.90;;
65037;SDS011;51605;47.040;15.294;2023-02-11T06:10:36;2.40;;;1.83;;
65037;SDS011;51605;47.040;15.294;2023-02-11T06:13:02;2.33;;;1.90;;
65037;SDS011;51605;47.040;15.294;2023-02-11T06:15:28;2.35;;;1.77;;
65037;SDS011;51605;47.040;15.294;2023-02-11T06:17:53;3.30;;;2.00;;
65037;SDS011;51605;47.040;15.294;2023-02-11T06:20:19;2.35;;;1.65;;
65037;SDS011;51605;47.040;15.294;2023-02-11T06:22:45;2.63;;;1.90;;
65037;SDS011;51605;47.040;15.294;2023-02-11T06:25:11;3.15;;;1.90;;
65037;SDS011;51605;47.040;15.294;2023-02-11T06:27:37;2.58;;;1.88;;
65037;SDS011;51605;47.040;15.294;2023-02-11T06:30:03;2.10;;;1.60;;
65037;SDS011;51605;47.040;15.294;2023-02-11T06:32:30;2.80;;;1.75;;
65037;SDS011;51605;47.040;15.294;2023-02-11T06:34:56;2.30;;;1.80;;
65037;SDS011;51605;47.040;15.294;2023-02-11T06:37:21;2.25;;;1.70;;
65037;SDS011;51605;47.040;15.294;2023-02-11T06:39:47;2.42;;;1.80;;
65037;SDS011;51605;47.040;15.294;2023-02-11T06:42:13;2.33;;;1.77;;
65037;SDS011;51605;47.040;15.294;2023-02-11T06:44:38;2.30;;;1.67;;
65037;SDS011;51605;47.040;15.294;2023-02-11T06:47:04;2.47;;;1.85;;
65037;SDS011;51605;47.040;15.294;2023-02-11T06:49:30;3.20;;;2.00;;
65037;SDS011;51605;47.040;15.294;2023-02-11T06:51:55;3.53;;;2.00;;
65037;SDS011;51605;47.040;15.294;2023-02-11T06:54:21;2.35;;;1.65;;
65037;SDS011;51605;47.040;15.294;2023-02-11T06:56:46;3.00;;;2.10;;
65037;SDS011;51605;47.040;15.294;2023-02-11T06:59:16;3.67;;;1.90;;
65037;SDS011;51605;47.040;15.294;2023-02-11T07:01:44;2.58;;;1.80;;
65037;SDS011;51605;47.040;15.294;2023-02-11T07:04:10;3.03;;;1.80;;
65037;SDS011;51605;47.040;15.294;2023-02-11T07:06:38;2.28;;;1.80;;
65037;SDS011;51605;47.040;15.294;2023-02-11T07:09:04;3.72;;;1.75;;
65037;SDS011;51605;47.040;15.294;2023-02-11T07:11:30;3.03;;;2.00;;
65037;SDS011;51605;47.040;15.294;2023-02-11T07:14:04;2.47;;;1.75;;
65037;SDS011;51605;47.040;15.294;2023-02-11T07:16:32;2.80;;;2.00;;
65037;SDS011;51605;47.040;15.294;2023-02-11T07:18:58;2.80;;;1.70;;
65037;SDS011;51605;47.040;15.294;2023-02-11T07:21:24;2.83;;;1.70;;
65037;SDS011;51605;47.040;15.294;2023-02-11T07:23:50;2.80;;;1.90;;
65037;SDS011;51605;47.040;15.294;2023-02-11T07:26:17;2.60;;;1.90;;
65037;SDS011;51605;47.040;15.294;2023-02-11T07:28:45;3.40;;;1.73;;
65037;SDS011;51605;47.040;15.294;2023-02-11T07:31:12;2.53;;;1.90;;
65037;SDS011;51605;47.040;15.294;2023-02-11T07:33:43;3.67;;;1.92;;
65037;SDS011;51605;47.040;15.294;2023-02-11T07:36:14;3.33;;;1.92;;
65037;SDS011;51605;47.040;15.294;2023-02-11T07:38:40;2.95;;;1.90;;
65037;SDS011;51605;47.040;15.294;2023-02-11T07:41:10;2.90;;;1.90;;
65037;SDS011;51605;47.040;15.294;2023-02-11T07:43:38;3.47;;;1.63;;
65037;SDS011;51605;47.040;15.294;2023-02-11T07:46:05;2.53;;;1.88;;
65037;SDS011;51605;47.040;15.294;2023-02-11T07:48:32;2.70;;;1.70;;
65037;SDS011;51605;47.040;15.294;2023-02-11T07:51:07;2.75;;;1.90;;
65037;SDS011;51605;47.040;15.294;2023-02-11T07:53:44;3.28;;;2.00;;
65037;SDS011;51605;47.040;15.294;2023-02-11T07:56:11;2.92;;;1.90;;
65037;SDS011;51605;47.040;15.294;2023-02-11T07:58:37;2.60;;;1.80;;
65037;SDS011;51605;47.040;15.294;2023-02-11T08:01:07;2.08;;;1.60;;
65037;SDS011;51605;47.040;15.294;2023-02-11T08:03:35;3.10;;;1.80;;
65037;SDS011;51605;47.040;15.294;2023-02-11T08:08:35;3.80;;;2.05;;
65037;SDS011;51605;47.040;15.294;2023-02-11T08:11:05;4.30;;;1.50;;
65037;SDS011;51605;47.040;15.294;2023-02-11T08:13:31;2.13;;;1.67;;
65037;SDS011;51605;47.040;15.294;2023-02-11T08:15:57;2.78;;;1.90;;
65037;SDS011;51605;47.040;15.294;2023-02-11T08:18:23;2.47;;;1.77;;
65037;SDS011;51605;47.040;15.294;2023-02-11T08:20:48;3.58;;;1.60;;
65037;SDS011;51605;47.040;15.294;2023-02-11T08:23:14;1.98;;;1.60;;
65037;SDS011;51605;47.040;15.294;2023-02-11T08:25:40;3.05;;;1.80;;
65037;SDS011;51605;47.040;15.294;2023-02-11T08:28:12;2.78;;;2.00;;
65037;SDS011;51605;47.040;15.294;2023-02-11T08:30:40;2.90;;;1.88;;
65037;SDS011;51605;47.040;15.294;2023-02-11T08:33:06;2.60;;;1.73;;
65037;SDS011;51605;47.040;15.294;2023-02-11T08:35:33;2.28;;;1.65;;
65037;SDS011;51605;47.040;15.294;2023-02-11T08:38:00;2.53;;;1.80;;
65037;SDS011;51605;47.040;15.294;2023-02-11T08:40:26;2.65;;;1.90;;
65037;SDS011;51605;47.040;15.294;2023-02-11T08:42:52;2.35;;;1.70;;
65037;SDS011;51605;47.040;15.294;2023-02-11T08:45:17;3.72;;;1.67;;
65037;SDS011;51605;47.040;15.294;2023-02-11T08:47:43;2.50;;;1.60;;
65037;SDS011;51605;47.040;15.294;2023-02-11T08:50:08;1.73;;;1.48;;
65037;SDS011;51605;47.040;15.294;2023-02-11T08:52:34;2.90;;;1.70;;
65037;SDS011;51605;47.040;15.294;2023-02-11T08:55:00;2.42;;;1.75;;
65037;SDS011;51605;47.040;15.294;2023-02-11T08:57:26;3.22;;;1.77;;
65037;SDS011;51605;47.040;15.294;2023-02-11T08:59:51;2.97;;;1.63;;
65037;SDS011;51605;47.040;15.294;2023-02-11T09:02:17;2.20;;;1.48;;
65037;SDS011;51605;47.040;15.294;2023-02-11T09:04:43;3.30;;;1.80;;
65037;SDS011;51605;47.040;15.294;2023-02-11T09:07:08;2.90;;;1.88;;
65037;SDS011;51605;47.040;15.294;2023-02-11T09:09:34;1.80;;;1.40;;
65037;SDS011;51605;47.040;15.294;2023-02-11T09:11:59;2.75;;;1.88;;
65037;SDS011;51605;47.040;15.294;2023-02-11T09:14:25;2.22;;;1.73;;
65037;SDS011;51605;47.040;15.294;2023-02-11T09:16:51;2.47;;;1.63;;
65037;SDS011;51605;47.040;15.294;2023-02-11T09:19:17;3.17;;;1.70;;
65037;SDS011;51605;47.040;15.294;2023-02-11T09:21:44;2.63;;;1.83;;
65037;SDS011;51605;47.040;15.294;2023-02-11T09:24:10;3.80;;;1.92;;
65037;SDS011;51605;47.040;15.294;2023-02-11T09:26:36;1.98;;;1.60;;
65037;SDS011;51605;47.040;15.294;2023-02-11T09:29:02;2.58;;;1.80;;
65037;SDS011;51605;47.040;15.294;2023-02-11T09:33:57;3.30;;;1.50;;
65037;SDS011;51605;47.040;15.294;2023-02-11T09:36:25;2.10;;;1.60;;
65037;SDS011;51605;47.040;15.294;2023-02-11T09:38:53;3.03;;;1.70;;
65037;SDS011;51605;47.040;15.294;2023-02-11T09:41:24;2.25;;;1.60;;
65037;SDS011;51605;47.040;15.294;2023-02-11T09:43:55;3.10;;;1.60;;
65037;SDS011;51605;47.040;15.294;2023-02-11T09:46:22;3.30;;;1.65;;
65037;SDS011;51605;47.040;15.294;2023-02-11T09:48:51;2.65;;;1.60;;
65037;SDS011;51605;47.040;15.294;2023-02-11T09:51:19;2.97;;;1.75;;
65037;SDS011;51605;47.040;15.294;2023-02-11T09:53:59;2.65;;;1.60;;
65037;SDS011;51605;47.040;15.294;2023-02-11T09:56:28;2.80;;;1.88;;
65037;SDS011;51605;47.040;15.294;2023-02-11T09:58:55;2.10;;;1.60;;
65037;SDS011;51605;47.040;15.294;2023-02-11T10:01:35;3.00;;;1.67;;
65037;SDS011;51605;47.040;15.294;2023-02-11T10:04:13;2.15;;;1.65;;
65037;SDS011;51605;47.040;15.294;2023-02-11T10:22:40;4.13;;;1.75;;
65037;SDS011;51605;47.040;15.294;2023-02-11T10:25:17;1.85;;;1.40;;
65037;SDS011;51605;47.040;15.294;2023-02-11T10:27:59;2.58;;;1.65;;
65037;SDS011;51605;47.040;15.294;2023-02-11T10:30:36;3.05;;;1.65;;
65037;SDS011;51605;47.040;15.294;2023-02-11T10:36:07;2.50;;;1.70;;
65037;SDS011;51605;47.040;15.294;2023-02-11T10:39:41;2.60;;;1.90;;
65037;SDS011;51605;47.040;15.294;2023-02-11T10:42:37;2.75;;;1.90;;
65037;SDS011;51605;47.040;15.294;2023-02-11T10:45:09;3.17;;;2.00;;
65037;SDS011;51605;47.040;15.294;2023-02-11T10:47:52;2.20;;;1.80;;
65037;SDS011;51605;47.040;15.294;2023-02-11T10:50:26;2.55;;;1.70;;
65037;SDS011;51605;47.040;15.294;2023-02-11T10:55:48;2.70;;;1.80;;
65037;SDS011;51605;47.040;15.294;2023-02-11T10:58:22;4.28;;;2.65;;
65037;SDS011;51605;47.040;15.294;2023-02-11T11:00:59;2.40;;;1.83;;
65037;SDS011;51605;47.040;15.294;2023-02-11T11:03:26;2.78;;;1.75;;
65037;SDS011;51605;47.040;15.294;2023-02-11T11:06:03;2.67;;;1.65;;
65037;SDS011;51605;47.040;15.294;2023-02-11T11:11:50;2.67;;;1.77;;
65037;SDS011;51605;47.040;15.294;2023-02-11T11:14:18;3.53;;;2.00;;
65037;SDS011;51605;47.040;15.294;2023-02-11T11:16:54;2.95;;;1.80;;
65037;SDS011;51605;47.040;15.294;2023-02-11T11:19:23;3.22;;;2.08;;
65037;SDS011;51605;47.040;15.294;2023-02-11T11:21:53;2.88;;;1.88;;
65037;SDS011;51605;47.040;15.294;2023-02-11T11:24:21;3.90;;;2.10;;
65037;SDS011;51605;47.040;15.294;2023-02-11T11:26:57;4.88;;;2.17;;
65037;SDS011;51605;47.040;15.294;2023-02-11T11:32:54;3.10;;;1.90;;
65037;SDS011;51605;47.040;15.294;2023-02-11T11:35:22;4.03;;;1.77;;
65037;SDS011;51605;47.040;15.294;2023-02-11T11:38:10;3.63;;;2.00;;
65037;SDS011;51605;47.040;15.294;2023-02-11T11:40:38;2.83;;;1.70;;
65037;SDS011;51605;47.040;15.294;2023-02-11T11:45:51;6.03;;;2.10;;
65037;SDS011;51605;47.040;15.294;2023-02-11T11:48:22;4.60;;;2.20;;
65037;SDS011;51605;47.040;15.294;2023-02-11T11:50:56;5.15;;;2.22;;
65037;SDS011;51605;47.040;15.294;2023-02-11T11:53:30;4.15;;;2.25;;
65037;SDS011;51605;47.040;15.294;2023-02-11T11:58:46;3.58;;;2.08;;
65037;SDS011;51605;47.040;15.294;2023-02-11T12:07:09;3.83;;;2.03;;
65037;SDS011;51605;47.040;15.294;2023-02-11T12:15:31;3.83;;;2.05;;
65037;SDS011;51605;47.040;15.294;2023-02-11T12:21:11;3.30;;;2.22;;
65037;SDS011;51605;47.040;15.294;2023-02-11T12:29:17;4.07;;;2.25;;
65037;SDS011;51605;47.040;15.294;2023-02-11T12:56:44;3.05;;;2.13;;
65037;SDS011;51605;47.040;15.294;2023-02-11T13:02:22;5.28;;;2.30;;
65037;SDS011;51605;47.040;15.294;2023-02-11T13:04:59;3.70;;;2.00;;
65037;SDS011;51605;47.040;15.294;2023-02-11T13:07:38;6.10;;;2.10;;
65037;SDS011;51605;47.040;15.294;2023-02-11T13:10:15;6.22;;;1.83;;
65037;SDS011;51605;47.040;15.294;2023-02-11T13:12:50;6.55;;;2.20;;
65037;SDS011;51605;47.040;15.294;2023-02-11T13:15:36;3.80;;;2.10;;
65037;SDS011;51605;47.040;15.294;2023-02-11T13:18:04;5.18;;;1.70;;
65037;SDS011;51605;47.040;15.294;2023-02-11T13:20:42;3.47;;;2.08;;
65037;SDS011;51605;47.040;15.294;2023-02-11T13:23:33;3.08;;;1.75;;
65037;SDS011;51605;47.040;15.294;2023-02-11T13:26:15;4.93;;;1.90;;
65037;SDS011;51605;47.040;15.294;2023-02-11T13:28:50;3.28;;;2.00;;
65037;SDS011;51605;47.040;15.294;2023-02-11T13:31:18;3.13;;;1.80;;
65037;SDS011;51605;47.040;15.294;2023-02-11T13:33:44;3.58;;;1.92;;
65037;SDS011;51605;47.040;15.294;2023-02-11T13:36:23;3.85;;;2.03;;
65037;SDS011;51605;47.040;15.294;2023-02-11T13:38:55;5.03;;;2.00;;
65037;SDS011;51605;47.040;15.294;2023-02-11T13:44:12;4.53;;;2.03;;
65037;SDS011;51605;47.040;15.294;2023-02-11T13:49:28;3.53;;;1.90;;
65037;SDS011;51605;47.040;15.294;2023-02-11T13:52:00;4.05;;;1.92;;
65037;SDS011;51605;47.040;15.294;2023-02-11T13:54:33;3.60;;;1.90;;
65037;SDS011;51605;47.040;15.294;2023-02-11T13:59:45;3.60;;;1.90;;
65037;SDS011;51605;47.040;15.294;2023-02-11T14:10:54;4.68;;;1.80;;
65037;SDS011;51605;47.040;15.294;2023-02-11T14:13:31;2.88;;;2.03;;
65037;SDS011;51605;47.040;15.294;2023-02-11T14:16:05;2.95;;;1.80;;
65037;SDS011;51605;47.040;15.294;2023-02-11T14:21:21;3.35;;;1.85;;
65037;SDS011;51605;47.040;15.294;2023-02-11T14:37:44;3.08;;;2.00;;
65037;SDS011;51605;47.040;15.294;2023-02-11T14:40:25;5.35;;;2.30;;
65037;SDS011;51605;47.040;15.294;2023-02-11T14:43:15;3.28;;;1.92;;
65037;SDS011;51605;47.040;15.294;2023-02-11T14:45:49;2.80;;;1.90;;
65037;SDS011;51605;47.040;15.294;2023-02-11T14:48:19;3.53;;;2.00;;
65037;SDS011;51605;47.040;15.294;2023-02-11T14:53:36;2.72;;;1.85;;
65037;SDS011;51605;47.040;15.294;2023-02-11T14:56:19;2.38;;;1.70;;
65037;SDS011;51605;47.040;15.294;2023-02-11T14:58:51;2.30;;;1.60;;
65037;SDS011;51605;47.040;15.294;2023-02-11T15:01:23;2.95;;;1.83;;
65037;SDS011;51605;47.040;15.294;2023-02-11T15:03:51;2.75;;;1.90;;
65037;SDS011;51605;47.040;15.294;2023-02-11T15:06:24;3.50;;;1.90;;
65037;SDS011;51605;47.040;15.294;2023-02-11T15:08:54;3.13;;;1.88;;
65037;SDS011;51605;47.040;15.294;2023-02-11T15:11:25;2.25;;;1.75;;
65037;SDS011;51605;47.040;15.294;2023-02-11T15:13:52;2.72;;;1.75;;
65037;SDS011;51605;47.040;15.294;2023-02-11T15:16:23;3.85;;;1.80;;
65037;SDS011;51605;47.040;15.294;2023-02-11T15:18:55;2.35;;;1.65;;
65037;SDS011;51605;47.040;15.294;2023-02-11T15:21:26;2.72;;;1.80;;
65037;SDS011;51605;47.040;15.294;2023-02-11T15:24:01;2.35;;;1.80;;
65037;SDS011;51605;47.040;15.294;2023-02-11T15:26:32;2.45;;;1.58;;
65037;SDS011;51605;47.040;15.294;2023-02-11T15:28:58;2.65;;;1.60;;
65037;SDS011;51605;47.040;15.294;2023-02-11T15:31:24;2.22;;;1.65;;
65037;SDS011;51605;47.040;15.294;2023-02-11T15:33:51;2.80;;;1.80;;
65037;SDS011;51605;47.040;15.294;2023-02-11T15:36:19;2.08;;;1.70;;
65037;SDS011;51605;47.040;15.294;2023-02-11T15:42:13;2.42;;;1.60;;
65037;SDS011;51605;47.040;15.294;2023-02-11T15:44:40;2.67;;;1.70;;
65037;SDS011;51605;47.040;15.294;2023-02-11T15:47:15;2.55;;;1.90;;
65037;SDS011;51605;47.040;15.294;2023-02-11T15:49:44;3.22;;;1.70;;
65037;SDS011;51605;47.040;15.294;2023-02-11T15:52:19;3.22;;;1.70;;
65037;SDS011;51605;47.040;15.294;2023-02-11T15:54:47;3.13;;;1.70;;
65037;SDS011;51605;47.040;15.294;2023-02-11T15:57:13;1.98;;;1.60;;
65037;SDS011;51605;47.040;15.294;2023-02-11T15:59:43;5.13;;;1.70;;
65037;SDS011;51605;47.040;15.294;2023-02-11T16:04:53;2.83;;;1.70;;
65037;SDS011;51605;47.040;15.294;2023-02-11T16:10:19;2.80;;;1.80;;
65037;SDS011;51605;47.040;15.294;2023-02-11T16:12:54;3.17;;;1.75;;
65037;SDS011;51605;47.040;15.294;2023-02-11T16:17:58;2.10;;;1.50;;
65037;SDS011;51605;47.040;15.294;2023-02-11T16:20:25;3.03;;;1.92;;
65037;SDS011;51605;47.040;15.294;2023-02-11T16:22:51;2.58;;;1.77;;
65037;SDS011;51605;47.040;15.294;2023-02-11T16:25:18;2.25;;;1.60;;
65037;SDS011;51605;47.040;15.294;2023-02-11T16:27:48;2.28;;;1.63;;
65037;SDS011;51605;47.040;15.294;2023-02-11T16:32:53;2.20;;;1.60;;
65037;SDS011;51605;47.040;15.294;2023-02-11T16:35:19;2.15;;;1.60;;
65037;SDS011;51605;47.040;15.294;2023-02-11T16:37:44;3.28;;;1.60;;
65037;SDS011;51605;47.040;15.294;2023-02-11T16:40:10;3.05;;;1.70;;
65037;SDS011;51605;47.040;15.294;2023-02-11T16:42:37;2.67;;;1.70;;
65037;SDS011;51605;47.040;15.294;2023-02-11T16:45:02;2.30;;;1.70;;
65037;SDS011;51605;47.040;15.294;2023-02-11T16:47:28;2.33;;;1.70;;
65037;SDS011;51605;47.040;15.294;2023-02-11T16:49:57;2.03;;;1.40;;
65037;SDS011;51605;47.040;15.294;2023-02-11T16:52:23;2.30;;;1.42;;
65037;SDS011;51605;47.040;15.294;2023-02-11T16:54:49;2.78;;;1.70;;
65037;SDS011;51605;47.040;15.294;2023-02-11T16:57:16;2.13;;;1.52;;
65037;SDS011;51605;47.040;15.294;2023-02-11T16:59:43;2.28;;;1.63;;
65037;SDS011;51605;47.040;15.294;2023-02-11T17:02:19;2.35;;;1.67;;
65037;SDS011;51605;47.040;15.294;2023-02-11T17:04:54;2.72;;;1.70;;
65037;SDS011;51605;47.040;15.294;2023-02-11T17:07:21;2.20;;;1.58;;
65037;SDS011;51605;47.040;15.294;2023-02-11T17:09:47;2.75;;;1.70;;
65037;SDS011;51605;47.040;15.294;2023-02-11T17:12:13;2.50;;;1.70;;
65037;SDS011;51605;47.040;15.294;2023-02-11T17:14:38;2.28;;;1.58;;
65037;SDS011;51605;47.040;15.294;2023-02-11T17:17:04;2.50;;;1.60;;
65037;SDS011;51605;47.040;15.294;2023-02-11T17:19:30;2.97;;;1.52;;
65037;SDS011;51605;47.040;15.294;2023-02-11T17:21:56;2.45;;;1.65;;
65037;SDS011;51605;47.040;15.294;2023-02-11T17:24:21;2.10;;;1.48;;
65037;SDS011;51605;47.040;15.294;2023-02-11T17:26:47;3.13;;;1.60;;
65037;SDS011;51605;47.040;15.294;2023-02-11T17:29:14;3.15;;;1.63;;
65037;SDS011;51605;47.040;15.294;2023-02-11T17:31:42;2.33;;;1.70;;
65037;SDS011;51605;47.040;15.294;2023-02-11T17:34:08;2.47;;;1.75;;
65037;SDS011;51605;47.040;15.294;2023-02-11T17:36:34;2.60;;;1.63;;
65037;SDS011;51605;47.040;15.294;2023-02-11T17:39:00;2.70;;;1.67;;
65037;SDS011;51605;47.040;15.294;2023-02-11T17:43:56;1.88;;;1.48;;